Time;durP1;ratioP1;P1;durP2;ratioP2;P2;SDS_P1;SDS_P2;PMS_P1;PMS_P2;Temp;Humidity;BMP_temperature;BMP_pressure;BME280_temperature;BME280_humidity;BME280_pressure;Samples;Min_cycle;Max_cycle;Signal;HPM_P1;HPM_P2
2023/05/06 00:00:05;;;;;;;3.13;2.83;;;23.10;45.30;;;;;;5002710;28;20045;-59
2023/05/06 00:02:32;;;;;;;2.53;2.33;;;23.10;45.90;;;;;;5016609;28;20054;-58
2023/05/06 00:05:00;;;;;;;2.90;2.70;;;23.00;45.30;;;;;;5016439;28;20054;-58
2023/05/06 00:07:27;;;;;;;3.00;2.70;;;23.10;45.40;;;;;;5016797;28;20054;-58
2023/05/06 00:09:54;;;;;;;2.83;2.63;;;23.00;45.40;;;;;;5015199;28;20042;-58
2023/05/06 00:12:21;;;;;;;2.88;2.60;;;23.00;45.40;;;;;;5016459;28;20049;-59
2023/05/06 00:14:48;;;;;;;2.85;2.55;;;23.00;45.50;;;;;;5015172;28;20076;-58
2023/05/06 00:17:15;;;;;;;2.80;2.50;;;23.00;45.50;;;;;;5016198;28;20054;-58
2023/05/06 00:19:43;;;;;;;2.40;2.20;;;23.00;45.50;;;;;;5016034;28;20060;-58
2023/05/06 00:22:10;;;;;;;2.95;2.75;;;23.00;45.50;;;;;;5015898;28;20060;-58
2023/05/06 00:24:37;;;;;;;2.00;1.90;;;23.00;45.50;;;;;;5015947;28;20391;-58
2023/05/06 00:27:04;;;;;;;3.45;2.65;;;23.00;45.50;;;;;;5015602;28;20136;-58
2023/05/06 00:29:31;;;;;;;3.00;2.63;;;23.00;45.50;;;;;;5016116;28;20045;-58
2023/05/06 00:31:58;;;;;;;3.50;2.75;;;23.00;45.50;;;;;;5015439;28;20049;-58
2023/05/06 00:34:25;;;;;;;2.58;2.25;;;23.00;45.50;;;;;;5015984;28;20056;-58
2023/05/06 00:36:52;;;;;;;2.40;2.20;;;23.00;45.50;;;;;;5015452;28;20042;-58
2023/05/06 00:39:20;;;;;;;2.90;2.70;;;23.00;45.50;;;;;;5015932;28;20513;-59
2023/05/06 00:41:47;;;;;;;2.60;2.40;;;23.00;45.40;;;;;;5015021;28;20046;-58
2023/05/06 00:44:14;;;;;;;2.22;2.05;;;23.00;45.30;;;;;;5015108;28;20057;-58
2023/05/06 00:46:42;;;;;;;2.35;2.17;;;23.00;45.20;;;;;;5015981;28;20049;-58
2023/05/06 00:49:11;;;;;;;2.20;2.00;;;23.00;45.20;;;;;;5014115;28;20054;-58
2023/05/06 00:51:39;;;;;;;2.40;2.20;;;23.00;45.20;;;;;;5015152;28;20490;-58
2023/05/06 00:54:06;;;;;;;2.35;2.15;;;23.00;45.30;;;;;;5015703;28;20290;-58
2023/05/06 00:56:33;;;;;;;2.50;2.30;;;23.00;45.30;;;;;;5015982;28;20406;-58
2023/05/06 00:59:00;;;;;;;2.30;2.20;;;23.00;45.30;;;;;;5015196;28;20136;-58
2023/05/06 01:01:30;;;;;;;2.22;2.13;;;23.00;45.30;;;;;;5015331;28;20212;-59
2023/05/06 01:03:57;;;;;;;2.58;2.38;;;22.90;45.30;;;;;;5014994;28;20050;-58
2023/05/06 01:06:49;;;;;;;2.58;2.38;;;23.00;45.40;;;;;;5015630;28;20115;-58
2023/05/06 01:09:43;;;;;;;2.67;2.40;;;23.00;45.30;;;;;;5014609;28;20053;-59
2023/05/06 01:12:28;;;;;;;2.35;2.15;;;23.00;45.30;;;;;;5015108;28;20046;-58
2023/05/06 01:15:07;;;;;;;2.97;2.67;;;23.00;45.30;;;;;;5015200;28;20054;-58
2023/05/06 01:17:43;;;;;;;2.22;2.10;;;22.90;45.30;;;;;;5015420;28;20050;-59
2023/05/06 01:20:11;;;;;;;2.33;2.15;;;22.90;45.40;;;;;;5002162;28;20149;-58
2023/05/06 01:22:38;;;;;;;2.20;2.03;;;22.90;45.40;;;;;;4995893;28;20046;-58
2023/05/06 01:25:06;;;;;;;1.85;1.75;;;22.90;45.40;;;;;;4995629;28;20082;-58
2023/05/06 01:27:34;;;;;;;2.22;2.08;;;22.90;45.40;;;;;;4993927;28;20062;-58
2023/05/06 01:30:02;;;;;;;2.90;2.05;;;22.90;45.40;;;;;;4994766;28;20061;-59
2023/05/06 01:32:55;;;;;;;2.40;2.20;;;22.90;45.40;;;;;;4995446;28;20137;-58
2023/05/06 01:35:50;;;;;;;2.00;1.90;;;22.90;45.40;;;;;;4995302;28;20106;-59
2023/05/06 01:38:38;;;;;;;2.05;1.95;;;22.90;45.40;;;;;;4994475;28;20069;-58
2023/05/06 01:41:06;;;;;;;2.10;2.00;;;22.90;45.40;;;;;;4994322;28;20510;-58
2023/05/06 01:43:43;;;;;;;1.92;1.83;;;22.90;45.40;;;;;;4995208;28;20388;-58
2023/05/06 01:46:16;;;;;;;2.13;2.03;;;22.90;45.40;;;;;;4994188;28;20054;-58
2023/05/06 01:48:46;;;;;;;2.05;1.80;;;22.90;45.40;;;;;;4994858;28;20069;-58
2023/05/06 01:51:13;;;;;;;2.00;1.90;;;22.90;45.40;;;;;;4993687;28;20046;-58
2023/05/06 01:53:40;;;;;;;1.92;1.83;;;22.80;45.30;;;;;;4995318;28;20052;-58
2023/05/06 01:56:07;;;;;;;2.50;2.20;;;22.90;45.40;;;;;;4994129;28;20046;-58
2023/05/06 01:58:34;;;;;;;1.77;1.67;;;22.80;45.30;;;;;;4994957;28;20047;-59
2023/05/06 02:01:01;;;;;;;2.25;2.15;;;22.90;45.40;;;;;;4993445;28;20050;-58
2023/05/06 02:03:29;;;;;;;2.08;1.98;;;22.80;45.40;;;;;;4992991;28;20423;-58
2023/05/06 02:05:56;;;;;;;2.10;1.90;;;22.80;45.40;;;;;;4994457;28;20371;-58
2023/05/06 02:08:23;;;;;;;1.88;1.77;;;22.80;45.40;;;;;;4994316;28;20054;-58
2023/05/06 02:10:50;;;;;;;2.00;1.90;;;22.80;45.50;;;;;;4994048;28;20050;-58
2023/05/06 02:13:18;;;;;;;2.03;1.70;;;22.80;45.60;;;;;;4994585;28;20061;-58
2023/05/06 02:15:45;;;;;;;1.73;1.63;;;22.70;45.50;;;;;;4993923;28;20050;-58
2023/05/06 02:18:12;;;;;;;2.08;1.98;;;22.80;45.60;;;;;;4992563;28;20042;-58
2023/05/06 02:20:39;;;;;;;1.63;1.52;;;22.70;45.60;;;;;;4994364;28;20066;-58
2023/05/06 02:23:06;;;;;;;2.38;1.85;;;22.70;45.70;;;;;;4994345;28;20126;-58
2023/05/06 02:25:33;;;;;;;1.80;1.70;;;22.70;45.70;;;;;;4994239;28;20054;-58
2023/05/06 02:28:00;;;;;;;2.25;2.15;;;22.70;45.60;;;;;;4994021;28;20410;-58
2023/05/06 02:30:29;;;;;;;2.20;2.10;;;22.70;45.60;;;;;;4994563;28;20130;-60
2023/05/06 02:32:57;;;;;;;2.42;1.75;;;22.80;45.50;;;;;;4993828;28;20058;-58
2023/05/06 02:35:24;;;;;;;2.35;1.85;;;22.80;45.50;;;;;;4993595;28;20046;-58
2023/05/06 02:37:51;;;;;;;1.60;1.50;;;22.80;45.40;;;;;;4994516;28;20054;-58
2023/05/06 02:40:18;;;;;;;2.17;1.98;;;22.80;45.40;;;;;;4994327;28;20050;-59
2023/05/06 02:42:45;;;;;;;1.85;1.75;;;22.80;45.40;;;;;;4992728;28;20046;-58
2023/05/06 02:45:12;;;;;;;1.85;1.75;;;22.80;45.30;;;;;;4993286;28;20050;-58
2023/05/06 02:47:40;;;;;;;1.92;1.83;;;22.80;45.40;;;;;;4994379;28;20399;-58
2023/05/06 02:50:07;;;;;;;1.95;1.85;;;22.80;45.30;;;;;;4993573;28;20056;-58
2023/05/06 02:52:34;;;;;;;1.98;1.83;;;22.80;45.30;;;;;;4993084;28;20056;-58
2023/05/06 02:55:01;;;;;;;1.70;1.60;;;22.70;45.30;;;;;;4993326;28;20056;-58
2023/05/06 02:57:29;;;;;;;1.58;1.48;;;22.70;45.30;;;;;;4994171;28;20406;-58
2023/05/06 02:59:56;;;;;;;1.67;1.58;;;22.70;45.30;;;;;;4993849;28;20054;-58
2023/05/06 03:02:23;;;;;;;2.00;1.90;;;22.80;45.30;;;;;;4993961;28;20085;-58
2023/05/06 03:04:50;;;;;;;2.25;1.60;;;22.80;45.30;;;;;;4994048;28;20046;-58
2023/05/06 03:07:18;;;;;;;1.50;1.40;;;22.80;45.30;;;;;;4993422;28;20053;-58
2023/05/06 03:09:45;;;;;;;1.40;1.38;;;22.80;45.30;;;;;;4994091;28;20403;-58
2023/05/06 03:12:12;;;;;;;1.80;1.70;;;22.70;45.30;;;;;;4993608;28;20047;-58
2023/05/06 03:14:39;;;;;;;1.80;1.70;;;22.80;45.30;;;;;;4993137;28;20050;-58
2023/05/06 03:17:06;;;;;;;1.58;1.48;;;22.70;45.30;;;;;;4993612;28;20046;-58
2023/05/06 03:19:33;;;;;;;2.28;2.05;;;22.70;45.30;;;;;;4993968;28;20372;-58
2023/05/06 03:22:00;;;;;;;1.30;1.30;;;22.70;45.30;;;;;;4993631;28;20050;-58
2023/05/06 03:24:27;;;;;;;1.85;1.63;;;22.70;45.30;;;;;;4993201;28;20056;-58
2023/05/06 03:26:54;;;;;;;1.48;1.48;;;22.70;45.30;;;;;;4993549;28;20050;-58
2023/05/06 03:29:21;;;;;;;1.52;1.42;;;22.70;45.30;;;;;;4993674;28;20050;-58
2023/05/06 03:31:49;;;;;;;1.73;1.63;;;22.70;45.30;;;;;;4993900;28;20125;-58
2023/05/06 03:34:17;;;;;;;1.83;1.73;;;22.70;45.30;;;;;;4993868;28;20062;-58
2023/05/06 03:36:45;;;;;;;1.40;1.40;;;22.70;45.30;;;;;;4996640;28;20121;-58
2023/05/06 03:39:12;;;;;;;1.80;1.70;;;22.70;45.30;;;;;;5012315;28;20078;-58
2023/05/06 03:41:39;;;;;;;1.88;1.75;;;22.70;45.30;;;;;;5012408;28;20046;-60
2023/05/06 03:44:06;;;;;;;1.67;1.58;;;22.70;45.30;;;;;;5013265;28;20046;-58
2023/05/06 03:46:33;;;;;;;1.67;1.58;;;22.70;45.40;;;;;;5013317;28;20048;-58
2023/05/06 03:49:01;;;;;;;1.77;1.67;;;22.70;45.40;;;;;;5012922;28;20054;-58
2023/05/06 03:51:29;;;;;;;2.08;1.90;;;22.70;45.40;;;;;;5013222;28;20046;-59
2023/05/06 03:53:56;;;;;;;1.75;1.60;;;22.70;45.40;;;;;;5012422;28;20247;-58
2023/05/06 03:56:23;;;;;;;1.60;1.42;;;22.70;45.40;;;;;;5012429;28;20046;-58
2023/05/06 03:58:52;;;;;;;1.95;1.73;;;22.70;45.40;;;;;;5012656;28;20045;-58
2023/05/06 04:01:20;;;;;;;2.05;1.95;;;22.70;45.30;;;;;;5012831;28;20046;-58
2023/05/06 04:03:47;;;;;;;1.40;1.30;;;22.70;45.30;;;;;;5013006;28;20054;-59
2023/05/06 04:06:14;;;;;;;1.73;1.63;;;22.70;45.20;;;;;;5016257;28;20136;-58
2023/05/06 04:08:41;;;;;;;1.50;1.40;;;22.80;45.20;;;;;;5016446;28;20502;-58
2023/05/06 04:11:09;;;;;;;1.80;1.70;;;22.80;45.10;;;;;;5016341;28;20407;-58
2023/05/06 04:13:36;;;;;;;1.52;1.42;;;22.90;45.10;;;;;;5016004;28;20054;-58
2023/05/06 04:16:04;;;;;;;1.58;1.48;;;22.80;45.00;;;;;;5016018;28;20053;-58
2023/05/06 04:18:33;;;;;;;1.42;1.33;;;22.80;45.00;;;;;;5016322;28;20046;-58
2023/05/06 04:21:00;;;;;;;1.63;1.52;;;22.90;45.00;;;;;;5016172;28;20491;-58
2023/05/06 04:23:27;;;;;;;1.50;1.40;;;22.90;44.90;;;;;;5015790;28;20132;-58
2023/05/06 04:25:54;;;;;;;1.38;1.38;;;22.90;44.90;;;;;;5016161;28;20550;-58
2023/05/06 04:28:21;;;;;;;1.33;1.23;;;22.90;44.80;;;;;;5015733;28;20046;-58
2023/05/06 04:30:48;;;;;;;1.60;1.50;;;23.00;44.80;;;;;;5015638;28;20459;-58
2023/05/06 04:33:15;;;;;;;2.10;1.90;;;23.00;44.70;;;;;;5015650;28;20506;-58
2023/05/06 04:35:52;;;;;;;1.58;1.48;;;23.00;44.60;;;;;;5016291;28;20050;-58
2023/05/06 04:38:24;;;;;;;1.33;1.23;;;23.00;44.50;;;;;;5016035;28;20108;-58
2023/05/06 04:40:51;;;;;;;1.88;1.70;;;23.00;44.40;;;;;;5015808;28;20050;-59
2023/05/06 04:43:18;;;;;;;2.13;1.92;;;23.00;44.30;;;;;;5015404;28;20053;-58
2023/05/06 04:45:48;;;;;;;1.48;1.35;;;23.00;44.30;;;;;;5015764;28;20406;-58
2023/05/06 04:48:23;;;;;;;2.00;1.80;;;23.00;44.30;;;;;;5014868;28;20061;-58
2023/05/06 04:50:50;;;;;;;1.50;1.40;;;23.10;44.30;;;;;;5015677;28;20504;-60
2023/05/06 04:53:17;;;;;;;1.23;1.23;;;23.10;44.20;;;;;;5015986;28;20053;-58
2023/05/06 04:55:44;;;;;;;1.67;1.58;;;23.10;44.20;;;;;;5015956;28;20052;-58
2023/05/06 04:58:11;;;;;;;1.88;1.27;;;23.10;44.10;;;;;;5015617;28;20486;-58
2023/05/06 05:00:38;;;;;;;1.50;1.40;;;23.10;44.10;;;;;;5015810;28;20046;-58
2023/05/06 05:03:05;;;;;;;1.90;1.70;;;23.10;44.00;;;;;;5015195;28;20504;-58
2023/05/06 05:05:33;;;;;;;1.75;1.65;;;23.10;44.00;;;;;;5015617;28;20100;-58
2023/05/06 05:08:00;;;;;;;1.67;1.65;;;23.20;44.00;;;;;;5015443;28;20050;-58
2023/05/06 05:10:27;;;;;;;1.30;1.20;;;23.20;44.00;;;;;;5015152;28;20053;-58
2023/05/06 05:12:54;;;;;;;1.48;1.38;;;23.20;43.90;;;;;;5015317;28;20141;-58
2023/05/06 05:15:22;;;;;;;1.52;1.52;;;23.20;43.90;;;;;;5015551;28;20050;-58
2023/05/06 05:17:50;;;;;;;1.40;1.30;;;23.20;43.80;;;;;;5015186;28;20125;-58
2023/05/06 05:20:17;;;;;;;1.92;1.83;;;23.30;43.80;;;;;;5014847;28;20096;-58
2023/05/06 05:22:44;;;;;;;1.90;1.80;;;23.30;43.70;;;;;;5015012;28;20050;-58
2023/05/06 05:25:11;;;;;;;1.95;1.85;;;23.40;43.70;;;;;;5015302;28;20060;-58
2023/05/06 05:27:41;;;;;;;1.83;1.73;;;23.40;43.60;;;;;;5015254;28;20050;-58
2023/05/06 05:30:08;;;;;;;1.95;1.85;;;23.40;43.60;;;;;;5014859;28;20141;-58
2023/05/06 05:32:35;;;;;;;1.80;1.70;;;23.40;43.40;;;;;;5015029;28;20103;-58
2023/05/06 05:35:03;;;;;;;1.92;1.83;;;23.60;43.50;;;;;;5014736;28;20137;-58
2023/05/06 05:37:30;;;;;;;2.58;2.38;;;23.60;43.40;;;;;;5014671;28;20129;-58
2023/05/06 05:39:57;;;;;;;2.75;2.45;;;23.60;43.30;;;;;;5015111;28;20060;-58
2023/05/06 05:42:24;;;;;;;2.88;2.42;;;23.70;43.20;;;;;;5015346;28;20061;-58
2023/05/06 05:44:51;;;;;;;3.00;2.50;;;23.70;43.20;;;;;;5015014;28;20050;-58
2023/05/06 05:47:18;;;;;;;2.65;2.45;;;23.70;43.10;;;;;;5014933;28;20125;-58
2023/05/06 05:49:45;;;;;;;3.15;2.65;;;23.80;43.00;;;;;;5014530;28;20058;-58
2023/05/06 05:52:13;;;;;;;2.58;2.38;;;23.90;43.00;;;;;;5014651;28;20410;-58
2023/05/06 05:54:40;;;;;;;2.88;2.58;;;23.90;42.80;;;;;;5016717;28;20053;-57
2023/05/06 05:57:07;;;;;;;3.05;2.55;;;23.90;42.70;;;;;;5014725;28;20129;-58
2023/05/06 05:59:34;;;;;;;3.25;2.80;;;24.00;42.70;;;;;;5011343;28;20057;-58
2023/05/06 06:02:01;;;;;;;3.38;2.92;;;24.00;42.70;;;;;;5012163;28;20046;-59
2023/05/06 06:04:28;;;;;;;3.33;2.40;;;24.00;42.70;;;;;;5014672;28;20424;-58
2023/05/06 06:07:00;;;;;;;2.80;2.58;;;24.10;42.60;;;;;;5014547;28;20084;-58
2023/05/06 06:09:27;;;;;;;3.28;2.97;;;24.10;42.60;;;;;;5013923;28;20141;-58
2023/05/06 06:11:55;;;;;;;5.20;3.13;;;24.10;42.50;;;;;;5014309;28;20042;-58
2023/05/06 06:14:22;;;;;;;2.83;2.50;;;24.10;42.50;;;;;;5014447;28;20056;-58
2023/05/06 06:16:49;;;;;;;4.15;2.58;;;24.10;42.50;;;;;;5013625;28;20129;-58
2023/05/06 06:19:16;;;;;;;3.28;2.85;;;24.10;42.40;;;;;;5012682;28;20053;-58
2023/05/06 06:21:43;;;;;;;3.13;2.83;;;24.20;42.50;;;;;;5014104;28;20058;-58
2023/05/06 06:24:11;;;;;;;3.38;2.90;;;24.20;42.50;;;;;;5013938;28;20050;-58
2023/05/06 06:26:38;;;;;;;2.60;2.40;;;24.20;42.50;;;;;;5014031;28;20085;-58
2023/05/06 06:29:05;;;;;;;3.80;2.97;;;24.30;42.50;;;;;;5012399;28;20398;-58
2023/05/06 06:31:33;;;;;;;3.15;2.95;;;24.30;42.50;;;;;;5013758;28;20050;-58
2023/05/06 06:34:05;;;;;;;3.53;3.03;;;24.30;42.50;;;;;;5013805;28;20053;-58
2023/05/06 06:36:32;;;;;;;3.17;2.80;;;24.30;42.50;;;;;;5013242;28;20041;-58
2023/05/06 06:38:59;;;;;;;4.00;3.22;;;24.30;42.50;;;;;;5013523;28;20407;-57
2023/05/06 06:41:27;;;;;;;3.08;2.70;;;24.30;42.70;;;;;;5006271;28;20458;-56
2023/05/06 06:43:54;;;;;;;4.00;2.83;;;24.40;42.70;;;;;;5006079;28;20054;-56
2023/05/06 06:46:21;;;;;;;3.25;2.85;;;24.40;42.70;;;;;;5012044;28;20434;-58
2023/05/06 06:48:49;;;;;;;6.80;2.50;;;24.40;42.70;;;;;;5013838;28;20449;-58
2023/05/06 06:51:16;;;;;;;3.53;2.60;;;24.40;42.90;;;;;;5013489;28;20073;-58
2023/05/06 06:53:43;;;;;;;6.18;3.47;;;24.40;43.10;;;;;;5013509;28;20045;-58
2023/05/06 06:56:11;;;;;;;3.38;3.03;;;24.50;43.90;;;;;;5013546;28;20046;-59
2023/05/06 06:58:38;;;;;;;3.22;2.65;;;24.50;44.10;;;;;;5011905;28;20046;-58
2023/05/06 07:01:06;;;;;;;3.40;2.60;;;24.50;44.10;;;;;;5011086;28;20064;-58
2023/05/06 07:03:33;;;;;;;3.88;2.17;;;24.50;44.00;;;;;;5012972;28;20100;-58
2023/05/06 07:06:00;;;;;;;2.88;2.65;;;24.50;43.90;;;;;;5013256;28;20053;-58
2023/05/06 07:08:27;;;;;;;3.10;2.80;;;24.50;43.90;;;;;;5012030;28;20049;-58
2023/05/06 07:10:55;;;;;;;3.13;2.60;;;24.50;43.80;;;;;;5013481;28;20045;-58
2023/05/06 07:13:22;;;;;;;3.28;2.92;;;24.50;43.70;;;;;;5013443;28;20148;-58
2023/05/06 07:15:49;;;;;;;3.00;2.72;;;24.60;43.70;;;;;;5012475;28;20173;-58
2023/05/06 07:18:16;;;;;;;4.45;2.90;;;24.60;43.60;;;;;;5013266;28;20120;-58
2023/05/06 07:20:43;;;;;;;3.83;3.10;;;24.60;43.60;;;;;;5013154;28;20050;-58
2023/05/06 07:23:10;;;;;;;3.85;2.80;;;24.60;43.80;;;;;;5012861;28;20042;-58
2023/05/06 07:25:38;;;;;;;2.60;2.28;;;24.60;43.70;;;;;;5012464;28;20068;-58
2023/05/06 07:28:05;;;;;;;2.45;2.33;;;24.70;43.70;;;;;;5012715;28;20068;-57
2023/05/06 07:30:32;;;;;;;3.38;3.03;;;24.70;43.60;;;;;;5012527;28;20045;-58
2023/05/06 07:32:59;;;;;;;3.80;3.10;;;24.70;43.60;;;;;;5005805;28;20137;-58
2023/05/06 07:35:27;;;;;;;3.97;2.80;;;24.70;43.60;;;;;;5012334;28;20046;-58
2023/05/06 07:37:54;;;;;;;3.10;2.90;;;24.70;43.60;;;;;;5012973;28;20042;-58
2023/05/06 07:40:21;;;;;;;3.40;3.03;;;24.70;43.50;;;;;;5015046;28;20046;-58
2023/05/06 07:42:48;;;;;;;2.97;2.70;;;24.70;43.50;;;;;;5016969;28;20116;-58
2023/05/06 07:45:15;;;;;;;2.80;2.60;;;24.70;43.40;;;;;;5009511;28;20129;-57
2023/05/06 07:47:42;;;;;;;4.95;2.92;;;24.70;43.40;;;;;;5016425;28;20501;-58
2023/05/06 07:50:10;;;;;;;3.38;3.10;;;24.80;43.50;;;;;;5009746;28;20057;-57
2023/05/06 07:52:37;;;;;;;2.67;2.47;;;24.80;43.50;;;;;;5002191;28;20340;-58
2023/05/06 07:55:04;;;;;;;3.28;2.97;;;24.80;43.50;;;;;;5016936;28;20077;-58
2023/05/06 07:57:32;;;;;;;4.55;3.03;;;24.70;43.40;;;;;;5002170;28;20053;-58
2023/05/06 07:59:59;;;;;;;3.55;2.90;;;24.80;43.40;;;;;;5010797;28;20505;-58
2023/05/06 08:02:26;;;;;;;3.03;2.42;;;24.80;43.30;;;;;;4998234;28;20402;-58
2023/05/06 08:04:53;;;;;;;3.08;2.78;;;24.80;43.30;;;;;;5001892;28;20049;-58
2023/05/06 08:07:20;;;;;;;3.70;3.40;;;24.80;43.20;;;;;;5005092;28;20042;-58
2023/05/06 08:09:47;;;;;;;3.13;2.83;;;24.80;43.10;;;;;;5003249;28;20058;-58
2023/05/06 08:12:16;;;;;;;2.88;2.65;;;24.80;43.10;;;;;;4999094;28;20129;-61
2023/05/06 08:14:43;;;;;;;3.47;3.15;;;24.80;43.00;;;;;;5016337;28;20556;-58
2023/05/06 08:17:11;;;;;;;3.40;3.13;;;24.80;42.90;;;;;;5016769;28;20080;-58
2023/05/06 08:19:38;;;;;;;3.30;3.00;;;24.90;43.00;;;;;;5016152;28;20053;-57
2023/05/06 08:22:05;;;;;;;3.13;2.83;;;24.80;42.80;;;;;;5001043;28;20061;-62
2023/05/06 08:24:32;;;;;;;3.53;3.00;;;24.80;42.80;;;;;;4996858;28;20061;-58
2023/05/06 08:26:59;;;;;;;3.40;3.10;;;24.80;42.80;;;;;;5006050;28;20124;-57
2023/05/06 08:29:27;;;;;;;3.30;3.00;;;24.80;42.80;;;;;;5010320;28;20056;-58
2023/05/06 08:31:54;;;;;;;3.63;3.00;;;24.80;42.80;;;;;;5007764;28;20046;-57
2023/05/06 08:34:21;;;;;;;3.67;3.40;;;24.80;42.70;;;;;;5011058;28;20060;-61
2023/05/06 08:36:48;;;;;;;3.70;3.40;;;24.90;42.70;;;;;;5016055;28;20050;-61
2023/05/06 08:39:15;;;;;;;4.00;3.08;;;24.90;42.70;;;;;;5016032;28;20065;-58
2023/05/06 08:41:47;;;;;;;3.60;3.00;;;24.90;42.60;;;;;;5014673;28;20528;-60
2023/05/06 08:44:17;;;;;;;4.95;3.28;;;24.90;42.60;;;;;;4996457;28;20082;-61
2023/05/06 08:46:45;;;;;;;3.55;3.13;;;24.90;42.50;;;;;;4996224;28;20056;-61
2023/05/06 08:49:13;;;;;;;3.40;3.10;;;24.90;42.50;;;;;;4996565;28;20132;-63
2023/05/06 08:51:43;;;;;;;3.45;3.15;;;24.90;42.50;;;;;;4995320;28;20496;-59
2023/05/06 08:54:11;;;;;;;3.10;2.90;;;24.90;42.40;;;;;;5000449;28;20046;-65
2023/05/06 08:56:43;;;;;;;3.08;2.88;;;24.90;42.40;;;;;;5015625;28;20516;-58
2023/05/06 08:59:11;;;;;;;3.50;3.20;;;25.00;42.40;;;;;;5015681;28;20512;-57
2023/05/06 09:01:38;;;;;;;3.85;3.55;;;25.00;42.30;;;;;;5015498;28;20760;-58
2023/05/06 09:04:06;;;;;;;2.88;2.67;;;25.00;42.30;;;;;;5014940;28;20112;-58
2023/05/06 09:06:33;;;;;;;3.80;3.17;;;25.00;42.20;;;;;;5014416;28;20042;-57
2023/05/06 09:09:01;;;;;;;3.70;3.10;;;25.00;42.10;;;;;;5013609;28;20136;-57
2023/05/06 09:11:28;;;;;;;3.20;2.90;;;25.10;42.10;;;;;;5015054;28;20100;-57
2023/05/06 09:14:12;;;;;;;3.03;2.83;;;25.10;42.00;;;;;;5008579;28;20129;-58
2023/05/06 09:16:43;;;;;;;3.13;2.70;;;25.10;42.00;;;;;;5014158;28;20069;-57
2023/05/06 09:19:10;;;;;;;4.47;3.13;;;25.10;41.90;;;;;;5029207;28;20050;-57
2023/05/06 09:21:40;;;;;;;3.03;2.65;;;25.10;41.90;;;;;;5014020;28;20042;-57
2023/05/06 09:24:08;;;;;;;4.22;2.85;;;25.20;41.90;;;;;;5014578;28;20045;-57
2023/05/06 09:26:38;;;;;;;3.55;2.92;;;25.10;41.70;;;;;;5015544;28;20406;-58
2023/05/06 09:29:05;;;;;;;3.33;2.80;;;25.20;41.80;;;;;;5013997;28;20089;-57
2023/05/06 09:31:38;;;;;;;3.05;2.72;;;25.20;41.70;;;;;;5014204;28;20287;-57
2023/05/06 09:34:06;;;;;;;2.90;2.70;;;25.20;41.60;;;;;;5014630;28;20046;-57
2023/05/06 09:36:33;;;;;;;2.95;2.75;;;25.30;41.60;;;;;;5013933;28;20137;-57
2023/05/06 09:39:00;;;;;;;3.70;2.63;;;25.30;41.60;;;;;;5014191;28;20077;-56
2023/05/06 09:41:28;;;;;;;4.80;2.85;;;25.30;41.50;;;;;;5014247;28;20054;-57
2023/05/06 09:43:57;;;;;;;2.67;2.47;;;25.30;41.50;;;;;;5014624;28;20056;-57
2023/05/06 09:46:26;;;;;;;2.70;2.50;;;25.30;41.40;;;;;;5013644;28;20049;-57
2023/05/06 09:48:56;;;;;;;3.50;3.20;;;25.40;41.30;;;;;;5015177;28;20119;-57
2023/05/06 09:51:25;;;;;;;2.83;2.63;;;25.40;41.30;;;;;;5014525;28;20140;-57
2023/05/06 09:53:54;;;;;;;2.72;2.53;;;25.40;41.20;;;;;;5014726;28;20486;-57
2023/05/06 09:56:22;;;;;;;3.35;3.05;;;25.40;41.20;;;;;;5014386;28;20056;-57
2023/05/06 09:58:51;;;;;;;2.63;2.30;;;25.40;41.10;;;;;;5014354;28;20141;-57
2023/05/06 10:01:18;;;;;;;4.20;3.00;;;25.40;41.10;;;;;;5013570;28;20049;-57
2023/05/06 10:04:07;;;;;;;2.75;2.55;;;25.40;41.10;;;;;;5014085;28;20052;-57
2023/05/06 10:06:38;;;;;;;3.05;2.85;;;25.40;41.10;;;;;;5013630;28;20483;-57
2023/05/06 10:09:07;;;;;;;3.10;2.90;;;25.40;41.10;;;;;;5014045;28;20050;-57
2023/05/06 10:11:35;;;;;;;2.92;2.72;;;25.40;41.00;;;;;;5012573;28;20050;-57
2023/05/06 10:14:04;;;;;;;2.83;2.63;;;25.40;40.90;;;;;;5014367;28;20066;-57
2023/05/06 10:16:34;;;;;;;2.90;2.60;;;25.40;40.80;;;;;;5013003;28;20124;-57
2023/05/06 10:19:03;;;;;;;2.83;2.63;;;25.50;40.80;;;;;;5013284;28;20550;-57
2023/05/06 10:21:34;;;;;;;3.10;2.88;;;25.40;40.70;;;;;;5013856;28;20088;-57
2023/05/06 10:24:07;;;;;;;2.85;2.65;;;25.50;40.60;;;;;;5011976;28;20486;-57
2023/05/06 10:26:36;;;;;;;2.97;2.70;;;25.50;40.50;;;;;;5013820;28;20100;-57
2023/05/06 10:29:09;;;;;;;3.03;2.72;;;25.50;40.50;;;;;;5011983;28;20050;-57
2023/05/06 10:31:43;;;;;;;4.47;3.47;;;25.50;40.40;;;;;;5012864;28;20557;-57
2023/05/06 10:34:10;;;;;;;2.90;2.70;;;25.60;40.40;;;;;;5012518;28;20080;-57
2023/05/06 10:36:41;;;;;;;2.78;2.58;;;25.60;40.30;;;;;;5013286;28;20136;-57
2023/05/06 10:39:13;;;;;;;3.08;2.78;;;25.70;40.30;;;;;;5013123;28;20390;-57
2023/05/06 10:41:40;;;;;;;2.88;2.65;;;25.70;40.30;;;;;;5013284;28;20056;-62
2023/05/06 10:44:08;;;;;;;3.03;2.60;;;25.70;40.20;;;;;;5012355;28;20053;-61
2023/05/06 10:46:57;;;;;;;2.90;2.67;;;25.70;40.20;;;;;;5011399;28;20053;-57
2023/05/06 10:49:25;;;;;;;2.83;2.63;;;25.70;40.10;;;;;;5012967;28;20050;-57
2023/05/06 10:52:13;;;;;;;2.70;2.22;;;25.70;40.10;;;;;;5013406;28;20513;-58
2023/05/06 10:54:49;;;;;;;3.25;2.95;;;25.70;40.00;;;;;;5010699;28;20057;-57
2023/05/06 10:57:17;;;;;;;2.72;2.55;;;25.70;40.00;;;;;;5003672;28;20053;-58
2023/05/06 10:59:45;;;;;;;3.20;2.95;;;25.70;39.90;;;;;;5003691;28;20048;-58
2023/05/06 11:02:15;;;;;;;5.38;2.90;;;25.70;39.90;;;;;;5015796;28;20050;-57
2023/05/06 11:04:49;;;;;;;2.67;2.47;;;25.70;39.80;;;;;;5012640;28;20506;-63
2023/05/06 11:07:23;;;;;;;2.75;2.55;;;25.80;39.80;;;;;;5021795;28;20073;-62
2023/05/06 11:10:05;;;;;;;3.40;3.03;;;25.80;39.80;;;;;;5032423;28;20091;-62
2023/05/06 11:12:50;;;;;;;2.72;2.53;;;25.80;39.70;;;;;;5013840;28;20038;-59
2023/05/06 11:15:25;;;;;;;2.72;2.53;;;25.80;39.60;;;;;;5012388;28;20053;-65
2023/05/06 11:17:54;;;;;;;2.65;2.45;;;25.80;39.60;;;;;;5012213;28;20089;-62
2023/05/06 11:20:25;;;;;;;2.97;2.67;;;25.90;39.60;;;;;;5009214;28;20550;-63
2023/05/06 11:22:53;;;;;;;3.03;2.83;;;25.90;39.60;;;;;;4994512;28;20064;-58
2023/05/06 11:25:41;;;;;;;2.70;2.50;;;26.00;39.60;;;;;;4992298;28;20046;-67
2023/05/06 11:28:13;;;;;;;2.72;2.60;;;25.90;39.40;;;;;;4993345;28;20078;-66
2023/05/06 11:30:42;;;;;;;3.13;2.92;;;26.00;39.40;;;;;;4992070;28;20130;-65
2023/05/06 11:33:20;;;;;;;2.58;2.38;;;26.00;39.30;;;;;;5008236;28;20052;-56
2023/05/06 11:35:47;;;;;;;2.63;2.42;;;26.00;39.30;;;;;;5013269;28;20438;-58
2023/05/06 11:38:15;;;;;;;3.63;3.33;;;26.00;39.20;;;;;;5013068;28;20054;-58
2023/05/06 11:40:42;;;;;;;3.13;2.72;;;26.10;39.20;;;;;;5012756;28;20137;-57
2023/05/06 11:43:10;;;;;;;3.63;3.28;;;26.10;39.20;;;;;;5012615;28;20141;-57
2023/05/06 11:45:45;;;;;;;4.50;3.30;;;26.10;39.20;;;;;;5012180;28;20048;-58
2023/05/06 11:48:14;;;;;;;3.20;2.90;;;26.10;39.20;;;;;;5012224;28;20046;-58
2023/05/06 11:50:46;;;;;;;3.30;3.05;;;26.10;39.70;;;;;;4991649;28;20055;-58
2023/05/06 11:53:17;;;;;;;2.80;2.60;;;26.10;39.10;;;;;;4993153;28;20081;-58
2023/05/06 11:55:46;;;;;;;2.90;2.70;;;26.10;39.10;;;;;;4992660;28;20054;-57
2023/05/06 11:58:18;;;;;;;2.75;2.55;;;26.10;39.10;;;;;;4992010;28;20057;-57
2023/05/06 12:01:00;;;;;;;3.53;3.03;;;26.10;39.10;;;;;;4993226;28;20054;-58
2023/05/06 12:03:30;;;;;;;2.97;2.78;;;26.10;39.00;;;;;;5011801;28;20042;-58
2023/05/06 12:05:58;;;;;;;2.95;2.75;;;26.10;39.00;;;;;;5012784;28;20136;-58
2023/05/06 12:08:31;;;;;;;3.25;2.95;;;26.10;39.00;;;;;;5012304;28;20045;-58
2023/05/06 12:11:04;;;;;;;2.92;2.72;;;26.10;39.00;;;;;;5012163;28;20057;-58
2023/05/06 12:13:35;;;;;;;2.90;2.70;;;26.10;39.00;;;;;;5012207;28;20046;-57
2023/05/06 12:16:04;;;;;;;3.67;3.17;;;26.10;39.00;;;;;;5011664;28;20049;-58
2023/05/06 12:18:32;;;;;;;3.00;2.80;;;26.10;39.00;;;;;;5011755;28;20418;-57
2023/05/06 12:21:02;;;;;;;2.70;2.50;;;26.10;39.00;;;;;;5012036;28;20064;-58
2023/05/06 12:23:30;;;;;;;2.70;2.50;;;26.00;39.00;;;;;;5012227;28;20085;-57
2023/05/06 12:26:07;;;;;;;3.40;3.20;;;26.00;39.00;;;;;;5011836;28;20258;-57
2023/05/06 12:28:35;;;;;;;2.75;2.55;;;26.00;39.00;;;;;;5015508;28;20402;-57
2023/05/06 12:31:24;;;;;;;2.80;2.60;;;25.90;39.00;;;;;;5015797;28;20057;-57
2023/05/06 12:33:51;;;;;;;3.17;2.95;;;26.00;39.10;;;;;;4996491;28;20050;-58
2023/05/06 12:36:21;;;;;;;2.75;2.58;;;26.00;39.10;;;;;;5012627;28;20506;-57
2023/05/06 12:38:53;;;;;;;3.17;2.97;;;25.90;39.10;;;;;;5022134;28;20046;-58
2023/05/06 12:41:22;;;;;;;2.83;2.63;;;25.90;39.10;;;;;;5030517;28;20049;-58
2023/05/06 12:43:49;;;;;;;2.75;2.55;;;25.90;39.10;;;;;;5023044;28;20061;-58
2023/05/06 12:46:16;;;;;;;3.45;2.70;;;25.90;39.10;;;;;;5012564;28;20141;-57
2023/05/06 12:49:00;;;;;;;2.97;2.78;;;26.00;39.00;;;;;;5015938;28;20100;-57
2023/05/06 12:51:29;;;;;;;2.95;2.75;;;25.90;38.90;;;;;;5015927;28;20136;-58
2023/05/06 12:53:57;;;;;;;3.50;3.13;;;26.00;38.90;;;;;;5015483;28;20129;-58
2023/05/06 12:56:24;;;;;;;2.95;2.72;;;26.00;38.90;;;;;;5015611;28;20136;-58